Aeroporto :
LOGIN :

Iscrizione | Disclaimer

   EN    FR    IT 

 










Sommario :    VFR   VFR Marginale   IFR   IFR Intensivo   IFR Molto Intensivo
Visibilità : 
Base nubi : 
>= 8 km
>= 3000ft
5 / 8 km
1000 / 3000 ft
1500m / 5 km
500 / 1000 ft
800 / 1500m
200 / 500 ft
< 800m
< 200 ft
Simboli :   Temporali  Nebbia  Neve Forte  Precipitazioni Forti  Vento > 20 kt
SIGMETs :   Varie  Temporali  Ghiacco  Turbolenza  Onda orograficha  Ceneri Vulcaniche






- Altitudine del aeroporto : 92 ft


EGXZ - RAP Topcliffe

ULTIMO METAR :
  • 240920Z AUTO 35012KT 9999 FEW026/// OVC038/// 07/01 Q1018

METARs OBSOLETI :
  • 240850Z AUTO 34014KT 9999 OVC044/// 06/01 Q1018
  • 240820Z AUTO 34015KT 9999 // OVC046/// 06/01 Q1018
  • 240750Z AUTO 36011KT 9999 // OVC034/// 05/01 Q1018
  • 240720Z AUTO 36018KT 9999 FEW027/// BKN048/// 06/01 Q1018
  • 240650Z AUTO 35011KT 9999 OVC050/// 05/01 Q1018
  • 240620Z AUTO 35013KT 9999 // OVC048/// 05/01 Q1019
  • 240550Z AUTO 34010KT 9999 // FEW034/// OVC047/// 05/01 Q1019
  • 240520Z AUTO 34010KT 9999 FEW025/// OVC047/// 05/01 Q1019
  • 240450Z AUTO 34012KT 9999 FEW036/// OVC047/// 05/01 Q1019

Previsioni scadute.



MetMap, La meteo Aeronautica in un colpo d'occhio ! - Copyright ORBIFLY Dicembre 2007 - Disclaimer

ORBIFLY MET'MAP TEAM :

Programmazione e sviluppo : Alexandra Zaïnal
Concezione : Baudouin d'Aumeries
Supporto tecnico e logistico : Manuel Goepfert
Aiuto : Marc-Olivier Méhu
Aiuto per la traduzione : Arnaldo La Scala




FONTI E CREDITI :

   NOAA